createdAt,value
2022-09-16T00:00:51.545Z,14.23
2022-09-16T00:03:19.082Z,14.21
2022-09-16T00:05:51.033Z,14.21
2022-09-16T00:08:21.805Z,14.22
2022-09-16T00:10:49.118Z,14.17
2022-09-16T00:13:17.030Z,14.19
2022-09-16T00:15:47.690Z,14.18
2022-09-16T00:18:14.925Z,14.17
2022-09-16T00:20:52.072Z,14.15
2022-09-16T00:23:19.579Z,14.15
2022-09-16T00:25:54.566Z,14.13
2022-09-16T00:28:23.006Z,14.13
2022-09-16T00:30:50.376Z,14.11
2022-09-16T00:33:19.021Z,14.09
2022-09-16T00:35:47.159Z,14.09
2022-09-16T00:38:14.213Z,14.07
2022-09-16T00:40:49.326Z,14.04
2022-09-16T00:43:19.063Z,14.03
2022-09-16T00:45:54.980Z,14.02
2022-09-16T00:48:25.978Z,14.00
2022-09-16T00:51:00.142Z,13.95
2022-09-16T00:53:34.343Z,13.96
2022-09-16T00:56:05.852Z,13.94
2022-09-16T00:58:50.055Z,13.88
2022-09-16T01:01:17.078Z,13.88
2022-09-16T01:03:55.420Z,13.82
2022-09-16T01:06:24.739Z,13.80
2022-09-16T01:08:52.087Z,13.77
2022-09-16T01:11:19.021Z,13.75
2022-09-16T01:13:47.286Z,13.73
2022-09-16T01:16:41.300Z,13.66
2022-09-16T01:19:52.952Z,13.64
2022-09-16T01:22:46.280Z,13.60
2022-09-16T01:25:34.612Z,13.59
2022-09-16T01:28:46.191Z,13.54
2022-09-16T01:31:34.648Z,13.53
2022-09-16T01:34:42.268Z,13.48
2022-09-16T01:37:24.436Z,13.47
2022-09-16T01:40:08.495Z,13.42
2022-09-16T01:42:47.448Z,13.40
2022-09-16T01:45:35.668Z,13.36
2022-09-16T01:48:33.374Z,13.33
2022-09-16T01:51:19.021Z,13.28
2022-09-16T01:54:15.271Z,13.23
2022-09-16T01:57:03.048Z,13.19
2022-09-16T01:59:48.826Z,13.18
2022-09-16T02:02:50.060Z,13.16
2022-09-16T02:05:26.668Z,13.14
2022-09-16T02:08:09.321Z,13.10
2022-09-16T02:10:47.419Z,13.08
2022-09-16T02:13:25.610Z,13.07
2022-09-16T02:15:57.313Z,13.08
2022-09-16T02:18:31.272Z,13.06
2022-09-16T02:21:00.580Z,13.06
2022-09-16T02:23:35.775Z,13.08
2022-09-16T02:26:09.386Z,13.08
2022-09-16T02:28:41.295Z,13.10
2022-09-16T02:31:10.135Z,13.12
2022-09-16T02:33:56.034Z,13.12
2022-09-16T02:36:25.748Z,13.14
2022-09-16T02:39:01.034Z,13.16
2022-09-16T02:41:28.049Z,13.18
2022-09-16T02:43:55.102Z,13.20
2022-09-16T02:46:21.915Z,13.21
2022-09-16T02:49:05.621Z,13.23
2022-09-16T02:52:38.118Z,13.23
2022-09-16T02:55:27.339Z,13.27
2022-09-16T02:57:54.340Z,13.30
2022-09-16T03:00:22.269Z,13.32
2022-09-16T03:02:49.535Z,13.34
2022-09-16T03:05:16.539Z,13.34
2022-09-16T03:07:43.572Z,13.33
2022-09-16T03:10:13.180Z,13.36
2022-09-16T03:13:01.671Z,13.35
2022-09-16T03:15:58.180Z,13.36
2022-09-16T03:18:56.196Z,13.37
2022-09-16T03:22:10.439Z,13.38
2022-09-16T03:25:07.090Z,13.41
2022-09-16T03:28:09.808Z,13.42
2022-09-16T03:30:52.722Z,13.44
2022-09-16T03:33:37.393Z,13.45
2022-09-16T03:36:07.513Z,13.45
2022-09-16T03:38:36.829Z,13.44
2022-09-16T03:41:06.202Z,13.45
2022-09-16T03:43:33.291Z,13.46
2022-09-16T03:46:00.446Z,13.47
2022-09-16T03:48:27.730Z,13.46
2022-09-16T03:50:54.678Z,13.49
2022-09-16T03:53:21.594Z,13.48
2022-09-16T03:55:51.606Z,13.45
2022-09-16T03:58:18.567Z,13.45
2022-09-16T04:00:50.942Z,13.44
2022-09-16T04:03:18.099Z,13.44
2022-09-16T04:05:45.071Z,13.51
2022-09-16T04:08:12.472Z,13.51
2022-09-16T04:10:39.411Z,13.53
2022-09-16T04:13:06.313Z,13.50
2022-09-16T04:15:38.541Z,13.49
2022-09-16T04:18:05.539Z,13.49
2022-09-16T04:20:33.849Z,13.48
2022-09-16T04:23:00.737Z,13.47
2022-09-16T04:25:27.700Z,13.45
2022-09-16T04:27:54.703Z,13.42
2022-09-16T04:30:21.660Z,13.42
2022-09-16T04:32:53.241Z,13.41
2022-09-16T04:35:20.211Z,13.40
2022-09-16T04:37:47.377Z,13.40
2022-09-16T04:40:14.386Z,13.38
2022-09-16T04:42:41.294Z,13.39
2022-09-16T04:45:08.891Z,13.38
2022-09-16T04:47:35.809Z,13.38
2022-09-16T04:50:02.732Z,13.37
2022-09-16T04:52:31.050Z,13.36
2022-09-16T04:54:58.531Z,13.36
2022-09-16T04:57:25.520Z,13.34
2022-09-16T04:59:52.481Z,13.33
2022-09-16T05:02:19.439Z,13.33
2022-09-16T05:04:46.380Z,13.32
2022-09-16T05:07:13.324Z,13.31
2022-09-16T05:09:41.146Z,13.30
2022-09-16T05:12:08.795Z,13.28
2022-09-16T05:14:35.730Z,13.27
2022-09-16T05:17:02.652Z,13.25
2022-09-16T05:19:29.595Z,13.24
2022-09-16T05:21:56.696Z,13.24
2022-09-16T05:24:23.593Z,13.22
2022-09-16T05:26:50.512Z,13.20
2022-09-16T05:29:17.683Z,13.21
2022-09-16T05:31:48.713Z,13.18
2022-09-16T05:34:19.832Z,13.19
2022-09-16T05:36:48.787Z,13.20
2022-09-16T05:39:25.851Z,13.19
2022-09-16T05:42:00.290Z,13.19
2022-09-16T05:44:28.911Z,13.20
2022-09-16T05:46:56.623Z,13.21
2022-09-16T05:49:24.088Z,13.22
2022-09-16T05:51:51.977Z,13.21
2022-09-16T05:54:19.974Z,13.21
2022-09-16T05:56:47.677Z,13.23
2022-09-16T05:59:16.755Z,13.25
2022-09-16T06:01:45.104Z,13.26
2022-09-16T06:04:14.593Z,13.28
2022-09-16T06:06:44.894Z,13.31
2022-09-16T06:09:24.718Z,13.31
2022-09-16T06:11:59.384Z,13.35
2022-09-16T06:14:28.536Z,13.36
2022-09-16T06:16:55.885Z,13.38
2022-09-16T06:19:22.988Z,13.39
2022-09-16T06:21:50.299Z,13.40
2022-09-16T06:24:19.132Z,13.44
2022-09-16T06:26:47.963Z,13.47
2022-09-16T06:29:16.738Z,13.50
2022-09-16T06:31:43.750Z,13.52
2022-09-16T06:34:20.805Z,13.53
2022-09-16T06:36:47.989Z,13.58
2022-09-16T06:39:16.869Z,13.59
2022-09-16T06:41:44.113Z,13.60
2022-09-16T06:44:11.084Z,13.64
2022-09-16T06:46:38.782Z,13.66
2022-09-16T06:49:06.724Z,13.68
2022-09-16T06:51:35.790Z,13.68
2022-09-16T06:54:05.846Z,13.68
2022-09-16T06:56:35.848Z,13.71
2022-09-16T06:59:03.537Z,13.71
2022-09-16T07:01:31.848Z,13.75
2022-09-16T07:04:03.563Z,13.74
2022-09-16T07:07:07.582Z,13.74
2022-09-16T07:09:18.587Z,13.76
2022-09-16T07:11:45.478Z,13.77
2022-09-16T07:14:12.459Z,13.77
2022-09-16T07:16:39.489Z,13.79
2022-09-16T07:19:06.726Z,13.82
2022-09-16T07:21:33.708Z,13.83
2022-09-16T07:24:02.873Z,13.87
2022-09-16T07:26:34.722Z,13.90
2022-09-16T07:29:04.508Z,13.91
2022-09-16T07:31:34.976Z,13.94
2022-09-16T07:34:05.047Z,13.96
2022-09-16T07:36:40.973Z,13.96
2022-09-16T07:39:09.397Z,13.97
2022-09-16T07:41:39.226Z,13.98
2022-09-16T07:44:08.342Z,14.00
2022-09-16T07:46:36.687Z,14.01
2022-09-16T07:49:07.546Z,14.00
2022-09-16T07:51:35.519Z,14.01
2022-09-16T07:54:08.879Z,14.02
2022-09-16T07:56:38.911Z,14.03
2022-09-16T07:59:13.090Z,14.03
2022-09-16T08:01:43.779Z,14.03
2022-09-16T08:04:12.278Z,14.06
2022-09-16T08:06:40.417Z,14.08
2022-09-16T08:09:21.255Z,14.10
2022-09-16T08:11:54.782Z,14.09
2022-09-16T08:14:21.756Z,14.11
2022-09-16T08:16:51.381Z,14.13
2022-09-16T08:19:20.511Z,14.17
2022-09-16T08:21:47.651Z,14.18
2022-09-16T08:24:14.702Z,14.20
2022-09-16T08:26:41.753Z,14.27
2022-09-16T08:29:10.193Z,14.26
2022-09-16T08:31:38.736Z,14.22
2022-09-16T08:34:06.408Z,14.19
2022-09-16T08:36:33.948Z,14.18
2022-09-16T08:39:01.574Z,14.24
2022-09-16T08:42:22.012Z,14.25
2022-09-16T08:44:58.565Z,14.27
2022-09-16T08:47:52.345Z,14.21
2022-09-16T08:50:29.282Z,14.23
2022-09-16T08:52:59.786Z,14.25
2022-09-16T08:55:39.504Z,14.28
2022-09-16T08:58:29.729Z,14.33
2022-09-16T09:01:40.127Z,14.37
2022-09-16T09:04:07.509Z,14.43
2022-09-16T09:06:46.342Z,14.46
2022-09-16T09:09:41.776Z,14.41
2022-09-16T09:12:52.407Z,14.43
2022-09-16T09:15:41.981Z,14.45
2022-09-16T09:18:37.029Z,14.48
2022-09-16T09:21:35.255Z,14.55
2022-09-16T09:24:25.084Z,14.56
2022-09-16T09:27:14.335Z,14.53
2022-09-16T09:30:06.064Z,14.51
2022-09-16T09:33:22.145Z,14.50
2022-09-16T09:36:27.274Z,14.48
2022-09-16T09:39:40.863Z,14.53
2022-09-16T09:42:25.920Z,14.62
2022-09-16T09:45:24.167Z,14.68
2022-09-16T09:48:23.265Z,14.70
2022-09-16T09:50:52.658Z,14.76
2022-09-16T09:53:39.719Z,14.79
2022-09-16T09:56:27.785Z,14.81
2022-09-16T09:59:22.214Z,14.87
2022-09-16T10:01:58.423Z,14.97
2022-09-16T10:04:25.771Z,15.05
2022-09-16T10:06:55.509Z,15.14
2022-09-16T10:09:23.243Z,15.23
2022-09-16T10:11:55.524Z,15.31
2022-09-16T10:14:35.507Z,15.41
2022-09-16T10:17:14.292Z,15.46
2022-09-16T10:19:59.962Z,15.52
2022-09-16T10:22:30.745Z,15.56
2022-09-16T10:25:02.633Z,15.64
2022-09-16T10:27:36.111Z,15.68
2022-09-16T10:30:04.376Z,15.71
2022-09-16T10:32:34.731Z,15.72
2022-09-16T10:35:08.141Z,15.71
2022-09-16T10:37:36.777Z,15.66
2022-09-16T10:40:06.795Z,15.65
2022-09-16T10:42:34.559Z,15.68
2022-09-16T10:45:28.950Z,15.71
2022-09-16T10:48:07.063Z,15.69
2022-09-16T10:50:34.680Z,15.69
2022-09-16T10:53:01.651Z,15.74
2022-09-16T10:55:35.223Z,15.84
2022-09-16T10:58:18.355Z,16.01
2022-09-16T11:01:40.502Z,16.13
2022-09-16T11:04:48.756Z,16.27
2022-09-16T11:07:57.099Z,16.45
2022-09-16T11:11:14.072Z,16.75
2022-09-16T11:14:11.813Z,16.96
2022-09-16T11:16:49.338Z,17.09
2022-09-16T11:19:37.300Z,17.30
2022-09-16T11:23:04.083Z,17.58
2022-09-16T11:25:44.226Z,17.69
2022-09-16T11:28:43.551Z,17.83
2022-09-16T11:31:33.881Z,17.82
2022-09-16T11:34:13.007Z,17.77
2022-09-16T11:36:54.879Z,17.69
2022-09-16T11:39:51.232Z,17.65
2022-09-16T11:42:56.731Z,17.56
2022-09-16T11:45:48.379Z,17.50
2022-09-16T11:48:56.483Z,17.47
2022-09-16T11:51:50.585Z,17.40
2022-09-16T11:54:58.239Z,17.33
2022-09-16T11:57:34.696Z,17.30
2022-09-16T12:00:12.391Z,17.29
2022-09-16T12:03:04.486Z,17.37
2022-09-16T12:05:51.733Z,17.48
2022-09-16T12:08:50.435Z,17.65
2022-09-16T12:11:52.011Z,17.75
2022-09-16T12:14:54.501Z,17.72
2022-09-16T12:17:29.814Z,17.70
2022-09-16T12:20:20.472Z,17.77
2022-09-16T12:23:03.844Z,17.86
2022-09-16T12:26:19.982Z,17.90
2022-09-16T12:29:33.313Z,18.01
2022-09-16T12:32:37.651Z,18.11
2022-09-16T12:35:15.249Z,18.21
2022-09-16T12:37:51.675Z,18.24
2022-09-16T12:40:27.587Z,18.19
2022-09-16T12:43:29.097Z,18.13
2022-09-16T12:46:36.655Z,18.06
2022-09-16T12:49:29.854Z,17.99
2022-09-16T12:52:45.819Z,17.90
2022-09-16T12:55:54.341Z,17.77
2022-09-16T12:58:56.933Z,17.57
2022-09-16T13:02:00.847Z,17.44
2022-09-16T13:04:36.489Z,17.28
2022-09-16T13:07:04.876Z,17.16
2022-09-16T13:09:37.159Z,17.01
2022-09-16T13:12:36.838Z,16.98
2022-09-16T13:15:06.241Z,16.99
2022-09-16T13:17:36.808Z,17.06
2022-09-16T13:20:25.964Z,17.12
2022-09-16T13:22:55.814Z,17.18
2022-09-16T13:25:35.742Z,17.22
2022-09-16T13:28:25.234Z,17.30
2022-09-16T13:30:52.816Z,17.38
2022-09-16T13:33:27.969Z,17.39
2022-09-16T13:36:28.395Z,17.43
2022-09-16T13:39:05.672Z,17.50
2022-09-16T13:41:43.896Z,17.61
2022-09-16T13:44:49.439Z,17.82
2022-09-16T13:47:34.096Z,17.97
2022-09-16T13:50:14.254Z,18.08
2022-09-16T13:52:42.605Z,18.11
2022-09-16T13:55:25.732Z,18.17
2022-09-16T13:58:06.859Z,18.11
2022-09-16T14:01:16.074Z,18.07
2022-09-16T14:04:30.124Z,18.01
2022-09-16T14:07:26.970Z,17.89
2022-09-16T14:10:22.544Z,17.81
2022-09-16T14:13:11.315Z,17.74
2022-09-16T14:15:47.828Z,17.70
2022-09-16T14:18:19.957Z,17.61
2022-09-16T14:21:17.881Z,17.58
2022-09-16T14:23:44.968Z,17.55
2022-09-16T14:26:18.955Z,17.57
2022-09-16T14:28:46.357Z,17.58
2022-09-16T14:31:19.784Z,17.63
2022-09-16T14:33:56.826Z,17.66
2022-09-16T14:36:30.348Z,17.69
2022-09-16T14:39:06.952Z,17.71
2022-09-16T14:41:48.688Z,17.73
2022-09-16T14:44:18.699Z,17.70
2022-09-16T14:47:04.625Z,17.66
2022-09-16T14:49:38.174Z,17.58
2022-09-16T14:52:15.956Z,17.54
2022-09-16T14:54:46.834Z,17.47
2022-09-16T14:57:23.038Z,17.38
2022-09-16T14:59:54.241Z,17.28
2022-09-16T15:02:52.998Z,17.19
2022-09-16T15:05:41.147Z,17.09
2022-09-16T15:08:24.824Z,17.00
2022-09-16T15:10:56.831Z,16.94
2022-09-16T15:13:34.801Z,16.89
2022-09-16T15:16:15.596Z,16.83
2022-09-16T15:19:02.418Z,16.76
2022-09-16T15:21:34.419Z,16.72
2022-09-16T15:24:15.756Z,16.65
2022-09-16T15:26:46.469Z,16.55
2022-09-16T15:29:35.385Z,16.47
2022-09-16T15:32:19.593Z,16.38
2022-09-16T15:34:46.981Z,16.27
2022-09-16T15:37:31.981Z,16.16
2022-09-16T15:40:23.837Z,16.04
2022-09-16T15:43:15.995Z,15.95
2022-09-16T15:45:45.912Z,15.86
2022-09-16T15:48:19.004Z,15.82
2022-09-16T15:50:54.480Z,15.75
2022-09-16T15:53:31.012Z,15.67
2022-09-16T15:56:09.172Z,15.60
2022-09-16T15:58:43.233Z,15.54
2022-09-16T16:01:35.466Z,15.52
2022-09-16T16:04:06.466Z,15.50
2022-09-16T16:07:02.482Z,15.43
2022-09-16T16:09:29.311Z,15.42
2022-09-16T16:12:08.473Z,15.32
2022-09-16T16:14:36.490Z,15.21
2022-09-16T16:17:15.117Z,15.07
2022-09-16T16:19:50.493Z,14.96
2022-09-16T16:22:18.646Z,14.85
2022-09-16T16:24:47.724Z,14.75
2022-09-16T16:27:17.469Z,14.68
2022-09-16T16:29:46.236Z,14.64
2022-09-16T16:32:16.465Z,14.58
2022-09-16T16:34:47.776Z,14.52
2022-09-16T16:37:34.145Z,14.50
2022-09-16T16:40:08.634Z,14.42
2022-09-16T16:42:44.026Z,14.42
2022-09-16T16:45:16.891Z,14.38
2022-09-16T16:47:46.270Z,14.35
2022-09-16T16:50:13.590Z,14.31
2022-09-16T16:52:41.072Z,14.28
2022-09-16T16:55:09.422Z,14.22
2022-09-16T16:57:36.664Z,14.16
2022-09-16T17:00:05.179Z,14.08
2022-09-16T17:02:32.340Z,14.04
2022-09-16T17:04:59.527Z,14.00
2022-09-16T17:07:27.596Z,13.98
2022-09-16T17:09:57.003Z,13.98
2022-09-16T17:12:24.148Z,13.97
2022-09-16T17:14:51.191Z,13.95
2022-09-16T17:17:18.115Z,13.94
2022-09-16T17:19:45.057Z,13.91
2022-09-16T17:22:12.154Z,13.90
2022-09-16T17:24:39.148Z,13.87
2022-09-16T17:27:06.053Z,13.84
2022-09-16T17:29:34.425Z,13.80
2022-09-16T17:32:02.933Z,13.75
2022-09-16T17:34:30.231Z,13.71
2022-09-16T17:36:58.131Z,13.66
2022-09-16T17:39:25.170Z,13.61
2022-09-16T17:41:52.140Z,13.58
2022-09-16T17:44:19.652Z,13.54
2022-09-16T17:46:47.391Z,13.50
2022-09-16T17:49:21.718Z,13.45
2022-09-16T17:51:50.282Z,13.42
2022-09-16T17:54:17.731Z,13.41
2022-09-16T17:56:45.550Z,13.40
2022-09-16T17:59:15.463Z,13.38
2022-09-16T18:01:42.446Z,13.33
2022-09-16T18:04:09.823Z,13.29
2022-09-16T18:06:46.351Z,13.25
2022-09-16T18:09:16.177Z,13.24
2022-09-16T18:11:43.155Z,13.20
2022-09-16T18:14:12.878Z,13.16
2022-09-16T18:16:40.697Z,13.14
2022-09-16T18:19:08.497Z,13.11
2022-09-16T18:21:37.987Z,13.08
2022-09-16T18:24:10.900Z,13.07
2022-09-16T18:26:38.135Z,13.04
2022-09-16T18:29:09.967Z,13.02
2022-09-16T18:31:41.463Z,13.01
2022-09-16T18:34:09.882Z,12.99
2022-09-16T18:36:39.843Z,13.01
2022-09-16T18:39:12.779Z,12.97
2022-09-16T18:41:41.993Z,12.95
2022-09-16T18:44:19.800Z,12.89
2022-09-16T18:46:47.478Z,12.88
2022-09-16T18:49:16.466Z,12.85
2022-09-16T18:51:52.428Z,12.80
2022-09-16T18:54:28.647Z,12.76
2022-09-16T18:57:01.066Z,12.76
2022-09-16T18:59:32.451Z,12.73
2022-09-16T19:02:03.308Z,12.71
2022-09-16T19:04:36.697Z,12.68
2022-09-16T19:07:07.703Z,12.64
2022-09-16T19:09:37.414Z,12.63
2022-09-16T19:12:05.218Z,12.57
2022-09-16T19:14:32.717Z,12.55
2022-09-16T19:16:59.688Z,12.51
2022-09-16T19:19:26.706Z,12.51
2022-09-16T19:21:53.672Z,12.46
2022-09-16T19:24:24.061Z,12.42
2022-09-16T19:26:53.729Z,12.40
2022-09-16T19:29:21.897Z,12.43
2022-09-16T19:31:54.649Z,12.40
2022-09-16T19:34:22.201Z,12.37
2022-09-16T19:36:49.691Z,12.35
2022-09-16T19:39:17.632Z,12.33
2022-09-16T19:41:45.214Z,12.30
2022-09-16T19:44:15.975Z,12.27
2022-09-16T19:46:46.661Z,12.24
2022-09-16T19:49:20.153Z,12.20
2022-09-16T19:51:48.356Z,12.18
2022-09-16T19:54:16.641Z,12.16
2022-09-16T19:56:48.203Z,12.10
2022-09-16T19:59:17.751Z,12.06
2022-09-16T20:01:44.787Z,12.02
2022-09-16T20:04:11.889Z,11.98
2022-09-16T20:06:41.637Z,11.91
2022-09-16T20:09:12.570Z,11.89
2022-09-16T20:11:45.417Z,11.82
2022-09-16T20:14:18.714Z,11.79
2022-09-16T20:16:46.527Z,11.75
2022-09-16T20:19:16.626Z,11.71
2022-09-16T20:21:44.093Z,11.70
2022-09-16T20:24:18.362Z,11.64
2022-09-16T20:26:47.198Z,11.62
2022-09-16T20:29:14.396Z,11.59
2022-09-16T20:31:41.420Z,11.55
2022-09-16T20:34:10.617Z,11.50
2022-09-16T20:36:39.162Z,11.47
2022-09-16T20:39:08.817Z,11.43
2022-09-16T20:41:38.268Z,11.40
2022-09-16T20:44:06.229Z,11.37
2022-09-16T20:46:36.370Z,11.32
2022-09-16T20:49:06.431Z,11.30
2022-09-16T20:51:34.683Z,11.26
2022-09-16T20:54:07.839Z,11.23
2022-09-16T20:56:39.727Z,11.17
2022-09-16T20:59:16.107Z,11.14
2022-09-16T21:01:44.020Z,11.13
2022-09-16T21:04:15.866Z,11.10
2022-09-16T21:06:43.175Z,11.09
2022-09-16T21:09:13.908Z,11.05
2022-09-16T21:11:43.573Z,11.05
2022-09-16T21:14:12.885Z,11.00
2022-09-16T21:16:40.884Z,10.98
2022-09-16T21:19:10.546Z,10.94
2022-09-16T21:21:40.838Z,10.90
2022-09-16T21:24:09.643Z,10.90
2022-09-16T21:26:38.772Z,10.88
2022-09-16T21:29:10.917Z,10.84
2022-09-16T21:31:40.805Z,10.83
2022-09-16T21:34:15.856Z,10.78
2022-09-16T21:36:44.482Z,10.80
2022-09-16T21:39:14.673Z,10.77
2022-09-16T21:41:44.982Z,10.75
2022-09-16T21:44:13.250Z,10.73
2022-09-16T21:46:46.143Z,10.69
2022-09-16T21:49:22.311Z,10.67
2022-09-16T21:51:50.692Z,10.64
2022-09-16T21:54:20.200Z,10.62
2022-09-16T21:56:49.093Z,10.61
2022-09-16T21:59:17.194Z,10.59
2022-09-16T22:01:44.190Z,10.56
2022-09-16T22:04:18.196Z,10.52
2022-09-16T22:06:45.677Z,10.52
2022-09-16T22:09:12.761Z,10.50
2022-09-16T22:11:41.819Z,10.47
2022-09-16T22:14:08.803Z,10.42
2022-09-16T22:16:37.733Z,10.41
2022-09-16T22:19:15.676Z,10.35
2022-09-16T22:21:46.019Z,10.34
2022-09-16T22:24:16.060Z,10.33
2022-09-16T22:26:43.509Z,10.32
2022-09-16T22:29:12.352Z,10.30
2022-09-16T22:31:41.794Z,10.29
2022-09-16T22:34:09.668Z,10.28
2022-09-16T22:36:38.221Z,10.26
2022-09-16T22:39:15.303Z,10.22
2022-09-16T22:41:43.099Z,10.24
2022-09-16T22:44:10.187Z,10.24
2022-09-16T22:46:46.563Z,10.22
2022-09-16T22:49:15.395Z,10.22
2022-09-16T22:51:43.145Z,10.23
2022-09-16T22:54:12.749Z,10.22
2022-09-16T22:56:39.938Z,10.24
2022-09-16T22:59:08.225Z,10.24
2022-09-16T23:01:39.739Z,10.24
2022-09-16T23:04:08.899Z,10.26
2022-09-16T23:06:38.091Z,10.28
2022-09-16T23:09:07.002Z,10.28
2022-09-16T23:11:35.974Z,10.30
2022-09-16T23:14:06.235Z,10.32
2022-09-16T23:16:37.108Z,10.32
2022-09-16T23:19:06.579Z,10.31
2022-09-16T23:21:33.623Z,10.33
2022-09-16T23:24:03.224Z,10.33
2022-09-16T23:26:36.956Z,10.32
2022-09-16T23:29:08.292Z,10.33
2022-09-16T23:31:41.833Z,10.32
2022-09-16T23:34:19.514Z,10.29
2022-09-16T23:36:47.195Z,10.28
2022-09-16T23:39:15.991Z,10.27
2022-09-16T23:41:43.487Z,10.24
2022-09-16T23:44:13.709Z,10.21
2022-09-16T23:46:40.853Z,10.18
2022-09-16T23:49:09.720Z,10.16
2022-09-16T23:51:37.567Z,10.12
2022-09-16T23:54:04.789Z,10.08
2022-09-16T23:56:32.000Z,10.07
2022-09-16T23:59:00.763Z,10.03
